Time;durP1;ratioP1;P1;durP2;ratioP2;P2;SDS_P1;SDS_P2;PMS_P1;PMS_P2;Temp;Humidity;BMP_temperature;BMP_pressure;BME280_temperature;BME280_humidity;BME280_pressure;Samples;Min_cycle;Max_cycle;Signal;HPM_P1;HPM_P2
2023/04/24 00:01:31;;;;;;;63.57;3.33;;;12.40;99.60;;;;;;5016031;28;20404;-82
2023/04/24 00:03:59;;;;;;;62.87;3.20;;;12.40;99.90;;;;;;5015808;28;20229;-82
2023/04/24 00:06:32;;;;;;;64.70;3.53;;;12.40;99.90;;;;;;5014653;28;20260;-82
2023/04/24 00:09:03;;;;;;;63.40;3.70;;;12.50;99.90;;;;;;5014677;28;20638;-82
2023/04/24 00:11:29;;;;;;;64.70;3.60;;;12.40;99.90;;;;;;5015035;28;20162;-82
2023/04/24 00:13:56;;;;;;;63.90;3.72;;;12.40;99.90;;;;;;5016049;28;20212;-82
2023/04/24 00:16:22;;;;;;;62.67;3.17;;;12.50;99.90;;;;;;5015942;28;20174;-82
2023/04/24 00:18:48;;;;;;;64.47;3.77;;;12.50;99.90;;;;;;5019238;28;20491;-82
2023/04/24 00:21:17;;;;;;;63.90;3.87;;;12.40;99.90;;;;;;5019676;28;20482;-82
2023/04/24 00:23:43;;;;;;;64.47;3.77;;;12.40;99.70;;;;;;5019323;28;20197;-82
2023/04/24 00:26:09;;;;;;;63.28;3.60;;;12.40;99.90;;;;;;5018053;28;20419;-82
2023/04/24 00:28:35;;;;;;;63.67;4.10;;;12.40;99.90;;;;;;5017785;28;20166;-82
2023/04/24 00:31:01;;;;;;;63.97;3.63;;;12.30;99.90;;;;;;5019550;28;20397;-81
2023/04/24 00:33:26;;;;;;;66.07;4.13;;;12.40;99.90;;;;;;5017997;28;20197;-82
2023/04/24 00:35:52;;;;;;;63.70;3.53;;;12.40;99.50;;;;;;5019333;28;20412;-82
2023/04/24 00:38:18;;;;;;;64.10;4.27;;;12.40;96.80;;;;;;5018815;28;20162;-82
2023/04/24 00:40:44;;;;;;;64.30;2.92;;;12.40;86.30;;;;;;5019144;28;20258;-82
2023/04/24 00:43:10;;;;;;;64.03;3.50;;;12.40;84.30;;;;;;5018699;28;20236;-82
2023/04/24 00:45:35;;;;;;;63.70;3.20;;;12.40;82.30;;;;;;5018707;28;20888;-82
2023/04/24 00:48:02;;;;;;;63.80;3.60;;;12.50;77.70;;;;;;5018860;28;20170;-81
2023/04/24 00:50:29;;;;;;;63.42;3.15;;;12.50;75.30;;;;;;5018633;28;20410;-82
2023/04/24 00:52:54;;;;;;;66.18;3.75;;;12.60;72.20;;;;;;5018501;28;20158;-82
2023/04/24 00:55:20;;;;;;;63.77;3.33;;;12.50;70.30;;;;;;5019021;28;20180;-82
2023/04/24 00:57:48;;;;;;;63.40;3.60;;;12.50;63.30;;;;;;5018721;28;20404;-81
2023/04/24 01:00:16;;;;;;;64.85;3.60;;;12.40;61.90;;;;;;5017999;28;20416;-81
2023/04/24 01:02:44;;;;;;;64.50;3.85;;;12.40;64.40;;;;;;5018517;28;20173;-82
2023/04/24 01:05:12;;;;;;;67.75;3.83;;;12.40;53.10;;;;;;5018175;28;20331;-81
2023/04/24 01:07:40;;;;;;;66.10;4.53;;;12.40;56.80;;;;;;5017474;28;20637;-80
2023/04/24 01:10:08;;;;;;;64.28;3.80;;;12.40;54.30;;;;;;5017207;28;20672;-82
2023/04/24 01:12:34;;;;;;;64.38;4.82;;;12.30;50.30;;;;;;5017071;28;20183;-82
2023/04/24 01:15:00;;;;;;;64.30;4.75;;;12.30;42.50;;;;;;5018262;28;20572;-81
2023/04/24 01:17:26;;;;;;;65.70;4.70;;;12.30;41.30;;;;;;5018477;28;20173;-81
2023/04/24 01:19:56;;;;;;;64.67;4.70;;;12.20;40.40;;;;;;5017296;28;20420;-81
2023/04/24 01:22:22;;;;;;;64.82;4.97;;;12.20;42.80;;;;;;5017364;28;20435;-82
2023/04/24 01:24:48;;;;;;;64.67;5.47;;;12.10;41.80;;;;;;5017513;28;20197;-80
2023/04/24 01:27:14;;;;;;;64.60;5.10;;;12.10;36.90;;;;;;5016420;28;20170;-82
2023/04/24 01:29:40;;;;;;;65.18;5.32;;;12.10;39.00;;;;;;5017474;28;20835;-82
2023/04/24 01:32:07;;;;;;;64.82;5.70;;;12.10;31.90;;;;;;5016818;28;20200;-82
2023/04/24 01:34:33;;;;;;;65.57;4.75;;;12.10;36.40;;;;;;5018198;28;20190;-81
2023/04/24 01:36:59;;;;;;;64.25;4.55;;;12.10;38.40;;;;;;5016645;28;20174;-82
2023/04/24 01:39:25;;;;;;;67.70;6.13;;;12.10;41.70;;;;;;5017751;28;20169;-81
2023/04/24 01:41:52;;;;;;;70.00;6.43;;;12.00;37.60;;;;;;5017081;28;20412;-81
2023/04/24 01:44:18;;;;;;;65.88;5.38;;;12.00;39.40;;;;;;5016505;28;20202;-82
2023/04/24 01:46:44;;;;;;;65.47;6.85;;;12.00;34.80;;;;;;5016576;28;20170;-82
2023/04/24 01:49:10;;;;;;;66.05;6.72;;;11.90;31.70;;;;;;5018210;28;20169;-82
2023/04/24 01:51:36;;;;;;;66.28;7.25;;;11.90;32.90;;;;;;5017733;28;20189;-82
2023/04/24 01:54:02;;;;;;;68.60;7.80;;;11.80;38.20;;;;;;5015939;28;20198;-82
2023/04/24 01:56:30;;;;;;;66.05;5.80;;;11.70;33.20;;;;;;5016810;28;20455;-81
2023/04/24 01:58:57;;;;;;;66.03;6.53;;;11.70;35.70;;;;;;5017784;28;20166;-82
2023/04/24 02:01:24;;;;;;;68.85;6.70;;;11.80;36.60;;;;;;5018003;28;20195;-81
2023/04/24 02:03:50;;;;;;;68.03;8.20;;;11.70;34.80;;;;;;5016146;28;20265;-82
2023/04/24 02:06:16;;;;;;;68.00;7.40;;;11.60;36.10;;;;;;5016540;28;20196;-82
2023/04/24 02:08:42;;;;;;;67.20;7.53;;;11.50;39.10;;;;;;5017276;28;20462;-82
2023/04/24 02:11:11;;;;;;;69.03;7.70;;;11.40;42.80;;;;;;5128510;23;20303;-83
2023/04/24 02:13:36;;;;;;;70.53;7.60;;;11.40;43.20;;;;;;5040400;28;20428;-83
2023/04/24 02:16:02;;;;;;;66.90;7.23;;;11.40;41.40;;;;;;5041368;28;20193;-83
2023/04/24 02:18:28;;;;;;;69.20;7.90;;;11.30;41.80;;;;;;5041592;28;20176;-83
2023/04/24 02:20:54;;;;;;;71.20;7.13;;;11.20;43.20;;;;;;5040262;28;20196;-83
2023/04/24 02:23:20;;;;;;;66.10;6.97;;;11.10;48.50;;;;;;5038261;28;20193;-83
2023/04/24 02:25:45;;;;;;;67.13;7.33;;;11.00;51.70;;;;;;5039714;28;20409;-83
2023/04/24 02:28:14;;;;;;;68.37;6.63;;;11.00;52.40;;;;;;5039922;28;20406;-83
2023/04/24 02:30:39;;;;;;;70.45;7.05;;;11.00;54.30;;;;;;5040192;28;20169;-84
2023/04/24 02:33:06;;;;;;;66.80;6.53;;;11.00;55.00;;;;;;5039849;28;20165;-84
2023/04/24 02:35:31;;;;;;;68.15;7.70;;;11.00;55.00;;;;;;5040147;28;20169;-83
2023/04/24 02:37:57;;;;;;;67.50;6.93;;;11.00;60.00;;;;;;5040190;28;20180;-83
2023/04/24 02:40:22;;;;;;;67.83;7.57;;;11.00;61.30;;;;;;5038826;28;20162;-83
2023/04/24 02:42:51;;;;;;;69.67;9.50;;;10.90;67.40;;;;;;5039767;28;20165;-83
2023/04/24 02:45:17;;;;;;;71.63;9.27;;;10.90;68.50;;;;;;5041110;28;20561;-83
2023/04/24 02:47:42;;;;;;;72.57;10.13;;;10.80;67.80;;;;;;5039262;28;20166;-83
2023/04/24 02:50:08;;;;;;;70.07;9.93;;;10.80;70.50;;;;;;5041113;28;20165;-84
2023/04/24 02:52:34;;;;;;;70.67;9.37;;;10.80;67.10;;;;;;5040721;28;20161;-84
2023/04/24 02:54:59;;;;;;;69.60;9.00;;;10.80;67.50;;;;;;5041196;28;20776;-84
2023/04/24 02:57:25;;;;;;;70.37;8.83;;;10.80;68.60;;;;;;5040503;28;20169;-83
2023/04/24 02:59:51;;;;;;;71.70;9.63;;;10.80;71.40;;;;;;5041507;28;20173;-84
2023/04/24 03:02:16;;;;;;;70.57;10.20;;;10.80;69.90;;;;;;5041894;28;20197;-83
2023/04/24 03:04:42;;;;;;;69.93;10.10;;;10.80;67.40;;;;;;5040361;28;20209;-83
2023/04/24 03:07:08;;;;;;;69.85;11.00;;;10.90;65.90;;;;;;5040364;28;20165;-83
2023/04/24 03:09:34;;;;;;;73.30;9.80;;;10.90;68.30;;;;;;5041012;28;20236;-83
2023/04/24 03:12:02;;;;;;;74.27;9.03;;;10.90;68.70;;;;;;5040648;28;20221;-83
2023/04/24 03:14:31;;;;;;;69.47;9.25;;;10.90;65.20;;;;;;5042964;28;20185;-83
2023/04/24 03:16:56;;;;;;;72.80;9.63;;;11.00;70.30;;;;;;5041024;28;20525;-84
2023/04/24 03:19:22;;;;;;;72.83;9.33;;;10.90;63.70;;;;;;5041127;28;20165;-83
2023/04/24 03:21:48;;;;;;;69.57;10.07;;;10.90;66.20;;;;;;5041291;28;20169;-84
2023/04/24 03:24:14;;;;;;;71.38;9.70;;;10.80;65.70;;;;;;5041910;28;20203;-84
2023/04/24 03:26:39;;;;;;;79.17;9.83;;;10.90;67.00;;;;;;5040564;28;20196;-83
2023/04/24 03:29:05;;;;;;;71.27;9.60;;;10.80;61.80;;;;;;5041373;28;20396;-84
2023/04/24 03:31:34;;;;;;;70.07;9.10;;;10.60;70.40;;;;;;5040702;28;20162;-84
2023/04/24 03:33:59;;;;;;;70.97;9.82;;;10.60;65.50;;;;;;5040964;28;20595;-84
2023/04/24 03:36:25;;;;;;;72.00;11.80;;;10.50;64.80;;;;;;5040486;28;20249;-84
2023/04/24 03:38:51;;;;;;;69.45;9.88;;;10.60;59.50;;;;;;5040495;28;20157;-83
2023/04/24 03:41:17;;;;;;;74.00;9.23;;;10.40;68.30;;;;;;5040606;28;20279;-84
2023/04/24 03:43:42;;;;;;;74.03;9.30;;;10.40;66.60;;;;;;5039754;28;20193;-84
2023/04/24 03:46:09;;;;;;;70.43;9.20;;;10.50;65.40;;;;;;5040560;28;20158;-84
2023/04/24 03:48:35;;;;;;;71.13;9.32;;;10.40;66.00;;;;;;5040181;28;20158;-84
2023/04/24 03:51:03;;;;;;;70.68;9.77;;;10.40;66.70;;;;;;5039724;28;20169;-84
2023/04/24 03:53:29;;;;;;;69.88;9.02;;;10.30;71.30;;;;;;5044103;28;20263;-84
2023/04/24 03:55:55;;;;;;;69.50;8.67;;;10.30;67.50;;;;;;5043605;28;20211;-83
2023/04/24 03:58:21;;;;;;;70.10;9.03;;;10.30;73.90;;;;;;5044207;28;20418;-84
2023/04/24 04:00:52;;;;;;;69.90;9.30;;;10.30;68.90;;;;;;5046270;28;20219;-84
2023/04/24 04:03:17;;;;;;;76.15;10.55;;;10.40;69.90;;;;;;5043031;28;20200;-84
2023/04/24 04:05:43;;;;;;;70.57;9.47;;;10.30;70.60;;;;;;5044003;28;20161;-83
2023/04/24 04:08:09;;;;;;;71.80;10.40;;;10.20;71.30;;;;;;5045751;28;20180;-84
2023/04/24 04:10:34;;;;;;;76.37;9.90;;;10.20;77.20;;;;;;5043442;28;20183;-84
2023/04/24 04:13:00;;;;;;;71.47;9.47;;;10.10;78.70;;;;;;5045134;28;20187;-84
2023/04/24 04:15:26;;;;;;;70.77;8.50;;;10.20;80.50;;;;;;5045087;28;20161;-84
2023/04/24 04:17:52;;;;;;;73.50;9.63;;;10.20;75.80;;;;;;5042263;28;20494;-83
2023/04/24 04:20:20;;;;;;;69.50;9.40;;;10.20;78.10;;;;;;5045022;28;20279;-84
2023/04/24 04:22:46;;;;;;;71.07;8.93;;;10.20;78.70;;;;;;5043415;28;20157;-84
2023/04/24 04:25:13;;;;;;;78.80;11.10;;;10.30;81.40;;;;;;5044543;28;20261;-84
2023/04/24 04:27:41;;;;;;;71.30;9.48;;;10.30;81.10;;;;;;5042678;28;20166;-84
2023/04/24 04:30:08;;;;;;;71.07;10.20;;;10.40;80.80;;;;;;5044344;28;20168;-84
2023/04/24 04:32:37;;;;;;;70.95;8.65;;;10.40;77.50;;;;;;5041479;28;20223;-83
2023/04/24 04:35:03;;;;;;;69.72;8.88;;;10.30;78.50;;;;;;5041655;28;20336;-84
2023/04/24 04:37:33;;;;;;;72.63;9.07;;;10.30;78.10;;;;;;5042950;28;20207;-84
2023/04/24 04:39:59;;;;;;;71.10;8.95;;;10.40;80.30;;;;;;5044515;28;20168;-84
2023/04/24 04:42:26;;;;;;;71.35;9.25;;;10.40;77.20;;;;;;5042871;28;20175;-84
2023/04/24 04:44:52;;;;;;;69.50;8.55;;;10.40;79.80;;;;;;5044213;28;20611;-84
2023/04/24 04:47:23;;;;;;;71.68;8.88;;;10.40;81.50;;;;;;5044300;28;20192;-84
2023/04/24 04:49:48;;;;;;;68.75;8.27;;;10.40;84.00;;;;;;5045281;28;20169;-84
2023/04/24 04:52:14;;;;;;;68.70;8.67;;;10.40;83.80;;;;;;5043011;28;20169;-84
2023/04/24 04:54:40;;;;;;;70.40;8.90;;;10.40;76.30;;;;;;5041897;28;20189;-84
2023/04/24 04:57:06;;;;;;;73.97;9.30;;;10.40;83.30;;;;;;5043894;28;20434;-84
2023/04/24 04:59:34;;;;;;;70.70;8.70;;;10.50;87.20;;;;;;5043032;28;20242;-84
2023/04/24 05:02:00;;;;;;;69.28;10.00;;;10.60;82.00;;;;;;5045117;28;20427;-84
2023/04/24 05:04:26;;;;;;;71.10;9.13;;;10.40;80.10;;;;;;5040687;28;20235;-84
2023/04/24 05:06:52;;;;;;;69.70;8.93;;;10.40;84.70;;;;;;5044352;28;20404;-84
2023/04/24 05:09:18;;;;;;;70.10;8.02;;;10.50;80.40;;;;;;5043570;28;20169;-84
2023/04/24 05:11:44;;;;;;;70.70;8.45;;;10.50;79.60;;;;;;5043484;28;20199;-84
2023/04/24 05:14:12;;;;;;;69.17;8.07;;;10.50;83.30;;;;;;5042874;28;20554;-84
2023/04/24 05:16:39;;;;;;;70.80;8.77;;;10.40;83.40;;;;;;5042265;28;20169;-84
2023/04/24 05:19:05;;;;;;;70.50;9.20;;;10.50;88.00;;;;;;5041821;28;20173;-84
2023/04/24 05:21:31;;;;;;;71.50;8.63;;;10.50;87.00;;;;;;5041708;28;20166;-84
2023/04/24 05:23:56;;;;;;;67.87;7.87;;;10.50;84.50;;;;;;5042057;28;20208;-84
2023/04/24 05:26:22;;;;;;;70.87;9.47;;;10.50;87.20;;;;;;5040785;28;20404;-84
2023/04/24 05:28:48;;;;;;;69.00;9.23;;;10.60;90.20;;;;;;5042109;28;20169;-84
2023/04/24 05:31:14;;;;;;;70.90;9.37;;;10.50;85.60;;;;;;5041522;28;20404;-84
2023/04/24 05:33:39;;;;;;;71.37;9.60;;;10.50;91.90;;;;;;5038119;28;20189;-84
2023/04/24 05:36:10;;;;;;;70.50;9.20;;;10.50;92.30;;;;;;5039094;28;20193;-85
2023/04/24 05:38:36;;;;;;;69.32;9.45;;;10.60;90.00;;;;;;5036682;28;20196;-84
2023/04/24 05:41:01;;;;;;;70.60;9.45;;;10.60;89.70;;;;;;5037160;28;20169;-84
2023/04/24 05:43:27;;;;;;;70.53;8.70;;;10.60;89.50;;;;;;5036823;28;20219;-85
2023/04/24 05:45:53;;;;;;;71.30;10.87;;;10.60;89.40;;;;;;5037281;28;20204;-85
2023/04/24 05:48:19;;;;;;;70.72;8.30;;;10.60;92.00;;;;;;5036988;28;20161;-85
2023/04/24 05:50:47;;;;;;;70.60;9.70;;;10.60;93.70;;;;;;5037014;28;20165;-84
2023/04/24 05:53:12;;;;;;;73.07;8.68;;;10.50;91.70;;;;;;5036626;28;20165;-84
2023/04/24 05:55:41;;;;;;;72.80;10.80;;;10.50;91.60;;;;;;5036467;28;20252;-85
2023/04/24 05:58:07;;;;;;;74.63;10.05;;;10.50;91.20;;;;;;5037170;28;20184;-84
2023/04/24 06:00:33;;;;;;;72.30;9.30;;;10.50;93.10;;;;;;5036629;28;20157;-84
2023/04/24 06:03:00;;;;;;;72.40;10.37;;;10.50;94.60;;;;;;5035132;28;20181;-85
2023/04/24 06:05:26;;;;;;;72.47;9.80;;;10.60;95.30;;;;;;5037835;28;20166;-85
2023/04/24 06:07:52;;;;;;;72.53;10.27;;;10.60;96.90;;;;;;5036469;28;20191;-85
2023/04/24 06:10:17;;;;;;;70.87;9.00;;;10.60;97.70;;;;;;5037464;28;20443;-84
2023/04/24 06:12:43;;;;;;;70.97;7.67;;;10.70;98.80;;;;;;5037357;28;20746;-85
2023/04/24 06:15:09;;;;;;;67.57;7.50;;;10.70;92.50;;;;;;5036547;28;20185;-84
2023/04/24 06:17:37;;;;;;;69.88;7.15;;;10.70;93.50;;;;;;5036595;28;20157;-84
2023/04/24 06:20:05;;;;;;;69.53;7.55;;;10.60;94.00;;;;;;5036133;28;20231;-83
2023/04/24 06:22:30;;;;;;;65.80;6.28;;;10.60;95.60;;;;;;5037606;28;20674;-83
2023/04/24 06:24:56;;;;;;;66.07;5.93;;;10.60;99.90;;;;;;5037803;28;20197;-83
2023/04/24 06:27:22;;;;;;;66.70;6.07;;;10.50;99.90;;;;;;5039161;28;20161;-83
2023/04/24 06:29:54;;;;;;;66.90;4.13;;;10.50;99.90;;;;;;5040650;28;20165;-83
2023/04/24 06:32:23;;;;;;;65.13;5.40;;;10.50;99.90;;;;;;5035983;28;20202;-83
2023/04/24 06:34:48;;;;;;;66.50;5.93;;;10.50;99.10;;;;;;5034073;28;20238;-82
2023/04/24 06:37:15;;;;;;;66.07;5.50;;;10.60;99.90;;;;;;5035077;28;20164;-82
2023/04/24 06:39:41;;;;;;;64.55;6.65;;;10.50;99.90;;;;;;5034817;28;20625;-82
2023/04/24 06:42:07;;;;;;;66.60;9.20;;;10.30;99.90;;;;;;5034748;28;20173;-82
2023/04/24 06:44:42;;;;;;;66.60;11.32;;;10.30;99.90;;;;;;5038277;23;20251;-82
2023/04/24 06:47:31;;;;;;;68.03;11.57;;;10.20;99.90;;;;;;5015647;28;20633;-82
2023/04/24 06:50:04;;;;;;;81.88;13.27;;;10.30;99.90;;;;;;5013228;28;20170;-82
2023/04/24 06:53:36;;;;;;;66.65;10.52;;;10.30;99.90;;;;;;5013458;28;20177;-84
2023/04/24 06:56:51;;;;;;;66.43;8.75;;;10.20;99.90;;;;;;4972753;28;20167;-81
2023/04/24 06:59:50;;;;;;;66.28;7.40;;;10.10;99.90;;;;;;4973866;28;20158;-81
2023/04/24 07:02:57;;;;;;;;;;;;;;;;;;;;;
2023/04/24 07:06:03;;;;;;;65.32;7.38;;;10.00;99.90;;;;;;4993187;28;20589;-81
2023/04/24 07:09:48;;;;;;;65.90;6.35;;;10.00;99.90;;;;;;4992365;28;20232;-81
2023/04/24 07:12:43;;;;;;;66.28;6.40;;;10.10;99.90;;;;;;4993726;28;20278;-81
2023/04/24 07:15:21;;;;;;;65.75;6.43;;;10.10;99.90;;;;;;4988324;28;20210;-81
2023/04/24 07:18:18;;;;;;;66.22;6.47;;;10.00;99.90;;;;;;4994844;28;20172;-81
2023/04/24 07:21:03;;;;;;;66.50;6.90;;;10.00;99.90;;;;;;4973442;28;20734;-81
2023/04/24 07:23:41;;;;;;;67.18;7.05;;;10.20;99.90;;;;;;4972546;28;20203;-80
2023/04/24 07:26:28;;;;;;;66.53;6.78;;;10.10;99.90;;;;;;4994679;28;20154;-80
2023/04/24 07:29:02;;;;;;;66.22;5.80;;;10.10;99.90;;;;;;4998753;28;20143;-80
2023/04/24 07:31:48;;;;;;;;;;;;;;;;;;;;;
2023/04/24 07:34:17;;;;;;;67.85;6.28;;;10.10;99.90;;;;;;4998250;28;20190;-81
2023/04/24 07:36:45;;;;;;;65.53;6.40;;;10.00;99.90;;;;;;4999233;28;20162;-81
2023/04/24 07:39:11;;;;;;;67.50;8.32;;;10.10;99.90;;;;;;4999232;28;20179;-82
2023/04/24 07:41:46;;;;;;;67.47;6.07;;;10.10;99.90;;;;;;5000698;28;20173;-81
2023/04/24 07:44:15;;;;;;;64.60;5.72;;;10.00;99.90;;;;;;5001356;28;20445;-82
2023/04/24 07:49:34;;;;;;;65.00;6.07;;;9.60;99.90;;;;;;5001924;28;20211;-82
2023/04/24 07:52:02;;;;;;;65.95;7.35;;;9.60;99.90;;;;;;5001190;28;20182;-82
2023/04/24 07:54:29;;;;;;;66.75;9.13;;;9.50;99.90;;;;;;5001186;28;20182;-82
2023/04/24 07:56:55;;;;;;;68.50;15.77;;;9.50;99.90;;;;;;5001219;28;20246;-82
2023/04/24 07:59:41;;;;;;;66.30;9.60;;;9.30;99.90;;;;;;5001076;28;20252;-83
2023/04/24 08:02:15;;;;;;;66.93;9.60;;;9.20;99.90;;;;;;5002931;28;20153;-83
2023/04/24 08:04:46;;;;;;;70.07;11.77;;;9.10;99.90;;;;;;5001760;28;20198;-83
2023/04/24 08:07:20;;;;;;;66.82;11.48;;;9.10;99.90;;;;;;5001060;28;20212;-83
2023/04/24 08:13:19;;;;;;;68.38;15.43;;;9.00;99.90;;;;;;4976481;28;20219;-86
2023/04/24 08:16:32;;;;;;;69.90;16.27;;;8.90;99.90;;;;;;4960175;28;20176;-88
2023/04/24 08:20:03;;;;;;;;;;;;;;;;;;;;;
2023/04/24 09:44:40;;;;;;;;;;;;;;;;;;;;;
2023/04/24 09:57:06;;;;;;;77.13;20.17;;;9.40;99.90;;;;;;5043241;23;20225;-87
2023/04/24 10:03:44;;;;;;;75.05;17.00;;;9.70;99.90;;;;;;4916184;29;20653;-87
2023/04/24 10:06:19;;;;;;;75.40;16.17;;;9.80;99.90;;;;;;4976809;28;20178;-87
2023/04/24 10:10:05;;;;;;;;;;;;;;;;;;;;;
2023/04/24 10:12:53;;;;;;;73.40;11.15;;;10.00;99.90;;;;;;4961647;28;20179;-87
2023/04/24 10:15:40;;;;;;;68.95;9.38;;;10.10;99.90;;;;;;4973750;28;20195;-88
2023/04/24 10:18:08;;;;;;;72.25;10.45;;;10.20;99.90;;;;;;5014402;28;20228;-87
2023/04/24 10:20:57;;;;;;;73.57;15.63;;;10.20;99.90;;;;;;5013947;28;20596;-87
2023/04/24 10:23:59;;;;;;;72.43;11.98;;;10.30;99.90;;;;;;5015045;28;20190;-87
2023/04/24 10:26:35;;;;;;;75.63;11.15;;;10.40;99.90;;;;;;4977662;28;20188;-88
2023/04/24 10:29:09;;;;;;;69.40;8.93;;;10.50;99.90;;;;;;4997861;28;20647;-87
2023/04/24 10:31:39;;;;;;;71.38;8.93;;;10.50;99.90;;;;;;5015933;28;20153;-87
2023/04/24 10:34:09;;;;;;;71.45;9.40;;;10.60;99.90;;;;;;5014347;28;20186;-87
2023/04/24 10:37:05;;;;;;;70.05;7.80;;;10.60;99.90;;;;;;5013259;28;20177;-87
2023/04/24 10:39:42;;;;;;;71.60;8.60;;;10.60;99.90;;;;;;5011672;28;20178;-87
2023/04/24 10:42:29;;;;;;;76.95;10.60;;;10.70;99.90;;;;;;5015113;28;20241;-87
2023/04/24 10:45:21;;;;;;;71.55;10.10;;;10.70;99.90;;;;;;5014548;28;20190;-86
2023/04/24 10:48:03;;;;;;;74.70;10.40;;;10.80;99.90;;;;;;5013486;28;20216;-87
2023/04/24 10:50:47;;;;;;;73.28;9.35;;;10.90;99.90;;;;;;5016376;28;20636;-87
2023/04/24 10:53:18;;;;;;;73.38;10.30;;;11.00;99.90;;;;;;5015674;28;20201;-87
2023/04/24 10:55:52;;;;;;;72.38;8.20;;;11.10;99.90;;;;;;5018377;28;20249;-87
2023/04/24 10:58:44;;;;;;;70.18;6.53;;;11.00;99.90;;;;;;5019742;28;20174;-87
2023/04/24 11:01:30;;;;;;;70.13;6.78;;;11.10;99.90;;;;;;5017182;28;20170;-86
2023/04/24 11:04:03;;;;;;;71.95;7.15;;;11.10;99.90;;;;;;5019238;28;20273;-87
2023/04/24 11:06:34;;;;;;;68.32;7.20;;;11.10;99.90;;;;;;5018127;28;20237;-85
2023/04/24 11:09:15;;;;;;;73.88;8.23;;;11.10;99.90;;;;;;5017490;28;20583;-86
2023/04/24 11:12:11;;;;;;;70.30;7.50;;;11.00;99.90;;;;;;5013614;28;20174;-87
2023/04/24 11:15:35;;;;;;;;;;;;;;;;;;;;;
2023/04/24 11:18:16;;;;;;;70.88;6.85;;;10.90;99.90;;;;;;5009797;28;20553;-87
2023/04/24 11:21:15;;;;;;;69.30;6.95;;;10.90;99.90;;;;;;5014530;28;20196;-87
2023/04/24 11:24:38;;;;;;;73.57;8.20;;;10.70;99.90;;;;;;5045536;23;20229;-87
2023/04/24 11:27:51;;;;;;;71.43;6.82;;;10.90;99.90;;;;;;5010344;28;20218;-87
2023/04/24 11:30:56;;;;;;;;;;;;;;;;;;;;;
2023/04/24 11:34:16;;;;;;;71.40;7.28;;;10.90;99.90;;;;;;4994006;28;20194;-87
2023/04/24 11:40:23;;;;;;;70.35;7.47;;;11.00;99.90;;;;;;5005687;28;20261;-86
2023/04/24 11:42:56;;;;;;;70.53;9.05;;;11.10;99.90;;;;;;4995754;28;20634;-87
2023/04/24 11:45:25;;;;;;;73.60;8.55;;;11.20;99.90;;;;;;4994582;28;20202;-87
2023/04/24 11:47:51;;;;;;;71.43;9.23;;;11.20;99.90;;;;;;4997254;28;20190;-87
2023/04/24 11:50:23;;;;;;;70.70;8.97;;;11.30;99.90;;;;;;4996557;28;20527;-87
2023/04/24 11:52:50;;;;;;;68.00;8.30;;;11.40;99.90;;;;;;4995030;28;20552;-87
2023/04/24 11:55:19;;;;;;;74.63;8.00;;;11.40;99.90;;;;;;5011234;28;20197;-87
2023/04/24 11:57:46;;;;;;;75.95;10.52;;;11.40;99.90;;;;;;5011860;28;20178;-86
2023/04/24 12:00:20;;;;;;;74.63;10.65;;;11.60;99.90;;;;;;4996687;28;20174;-86
2023/04/24 12:02:47;;;;;;;74.03;10.18;;;12.00;99.90;;;;;;4996567;28;20168;-87
2023/04/24 12:05:23;;;;;;;73.13;10.68;;;12.30;99.90;;;;;;4997056;28;20214;-87
2023/04/24 12:07:48;;;;;;;74.22;11.02;;;12.70;99.90;;;;;;5014156;28;20170;-86
2023/04/24 12:10:14;;;;;;;72.83;9.87;;;12.90;99.90;;;;;;4998291;28;20169;-86
2023/04/24 12:12:41;;;;;;;73.97;8.37;;;13.00;99.90;;;;;;4995711;28;20409;-86
2023/04/24 12:15:08;;;;;;;71.25;7.45;;;12.90;99.90;;;;;;5001878;28;20933;-86
2023/04/24 12:17:35;;;;;;;72.40;7.43;;;12.70;99.90;;;;;;5002689;28;20178;-87
2023/04/24 12:20:05;;;;;;;89.22;7.47;;;12.60;99.90;;;;;;5000999;28;20586;-86
2023/04/24 12:22:50;;;;;;;77.47;8.30;;;12.50;99.90;;;;;;5002671;28;20542;-86
2023/04/24 12:25:18;;;;;;;71.68;8.13;;;12.30;99.90;;;;;;5002854;28;20200;-86
2023/04/24 12:27:45;;;;;;;72.93;8.93;;;12.30;99.90;;;;;;5017515;28;20722;-86
2023/04/24 12:30:20;;;;;;;72.88;8.15;;;12.30;99.90;;;;;;5016424;28;20211;-87
2023/04/24 12:32:48;;;;;;;74.80;9.00;;;12.30;99.90;;;;;;4998565;28;20580;-87
2023/04/24 12:36:18;;;;;;;;;;;;;;;;;;;;;
2023/04/24 12:38:46;;;;;;;71.60;7.88;;;12.40;99.90;;;;;;4985490;28;20182;-86
2023/04/24 12:41:15;;;;;;;73.13;7.72;;;12.70;99.90;;;;;;5001288;28;20178;-86
2023/04/24 12:43:52;;;;;;;74.20;8.25;;;13.00;99.90;;;;;;5017218;28;20214;-87
2023/04/24 12:46:17;;;;;;;71.25;8.00;;;13.30;99.90;;;;;;5002475;28;20158;-87
2023/04/24 12:48:43;;;;;;;75.60;8.80;;;13.60;99.90;;;;;;5001668;28;20194;-86
2023/04/24 12:51:09;;;;;;;68.47;6.70;;;13.90;99.90;;;;;;5000921;28;20209;-86
2023/04/24 12:53:35;;;;;;;69.97;6.40;;;14.20;97.30;;;;;;5002231;28;20187;-87
2023/04/24 12:56:00;;;;;;;71.87;7.00;;;14.40;88.00;;;;;;5001978;28;20634;-84
2023/04/24 12:58:26;;;;;;;70.47;6.43;;;14.60;90.00;;;;;;5017448;28;20174;-85
2023/04/24 13:00:52;;;;;;;73.03;7.83;;;14.70;58.10;;;;;;5000962;28;20170;-87
2023/04/24 13:03:18;;;;;;;71.43;7.63;;;14.60;50.00;;;;;;5017152;28;20635;-86
2023/04/24 13:05:44;;;;;;;71.10;8.27;;;14.40;29.50;;;;;;5001379;28;20217;-86
2023/04/24 13:08:10;;;;;;;71.97;8.43;;;14.50;58.10;;;;;;5002770;28;20390;-84
2023/04/24 13:10:36;;;;;;;73.97;8.70;;;14.40;32.60;;;;;;5002973;28;20178;-85
2023/04/24 13:13:25;;;;;;;71.47;7.70;;;14.30;34.60;;;;;;5002131;28;20220;-86
2023/04/24 13:19:39;;;;;;;70.93;6.90;;;14.20;30.00;;;;;;5002156;28;20413;-85
2023/04/24 13:22:05;;;;;;;68.23;6.67;;;14.30;17.60;;;;;;5001670;28;20402;-86
2023/04/24 13:24:31;;;;;;;71.60;7.80;;;14.30;27.90;;;;;;5001246;28;20453;-87
2023/04/24 13:26:57;;;;;;;72.13;7.97;;;14.40;37.40;;;;;;5001141;28;20413;-87
2023/04/24 13:29:23;;;;;;;74.20;8.87;;;14.50;21.00;;;;;;5000571;28;20421;-86
2023/04/24 13:31:54;;;;;;;75.40;7.17;;;14.60;26.30;;;;;;5001724;28;20408;-86
2023/04/24 13:34:24;;;;;;;69.17;6.70;;;14.60;5.00;;;;;;5016467;28;20512;-86
2023/04/24 13:36:54;;;;;;;72.47;6.67;;;14.40;8.00;;;;;;4999621;28;20410;-85
2023/04/24 13:39:21;;;;;;;74.80;6.60;;;14.20;1.00;;;;;;5000842;28;20798;-87
2023/04/24 13:41:48;;;;;;;72.23;7.70;;;14.00;3.00;;;;;;5002441;28;20406;-87
2023/04/24 13:44:17;;;;;;;72.40;8.00;;;14.00;7.50;;;;;;5000234;28;20453;-84
2023/04/24 13:46:45;;;;;;;70.47;6.40;;;14.00;7.00;;;;;;5016637;28;20876;-86
2023/04/24 13:49:12;;;;;;;70.70;7.10;;;13.90;3.00;;;;;;5001112;28;20931;-85
2023/04/24 13:51:38;;;;;;;69.13;8.53;;;13.80;15.50;;;;;;5000009;28;20402;-86
2023/04/24 13:54:04;;;;;;;76.37;7.73;;;13.60;21.80;;;;;;5001331;28;20917;-86
2023/04/24 13:56:30;;;;;;;76.27;6.57;;;13.50;13.60;;;;;;5002094;28;20437;-85
2023/04/24 13:58:56;;;;;;;71.47;6.60;;;13.30;16.10;;;;;;5000453;28;20221;-85
2023/04/24 14:01:25;;;;;;;71.75;7.00;;;13.30;16.10;;;;;;5017249;28;20185;-86
2023/04/24 14:03:55;;;;;;;66.83;5.93;;;13.30;16.20;;;;;;5002094;28;20540;-86
2023/04/24 14:07:03;;;;;;;69.30;6.75;;;13.30;6.50;;;;;;5000678;28;20506;-86
2023/04/24 14:12:06;;;;;;;67.40;6.70;;;13.20;4.60;;;;;;4975924;28;20451;-82
2023/04/24 14:14:32;;;;;;;71.10;8.30;;;13.20;1.00;;;;;;4977010;28;20272;-83
2023/04/24 14:16:58;;;;;;;76.27;7.60;;;13.20;1.00;;;;;;4977565;28;20175;-83
2023/04/24 14:19:24;;;;;;;70.60;7.20;;;13.20;1.00;;;;;;4975655;28;20189;-82
2023/04/24 14:21:50;;;;;;;69.70;6.00;;;13.20;1.00;;;;;;4977384;28;20195;-83
2023/04/24 14:24:15;;;;;;;73.03;6.90;;;13.40;1.30;;;;;;4977579;28;20454;-83
2023/04/24 14:26:41;;;;;;;78.13;7.13;;;13.60;16.70;;;;;;4976317;28;20175;-83
2023/04/24 14:29:06;;;;;;;69.67;5.70;;;13.70;7.30;;;;;;4975782;28;20257;-83
2023/04/24 14:31:32;;;;;;;69.70;6.30;;;13.80;1.00;;;;;;4976460;28;20177;-83
2023/04/24 14:33:58;;;;;;;71.60;6.15;;;13.70;1.00;;;;;;4975593;28;20738;-82
2023/04/24 14:36:24;;;;;;;70.53;6.27;;;13.70;1.00;;;;;;4976925;28;20195;-82
2023/04/24 14:38:49;;;;;;;70.80;5.80;;;13.80;1.00;;;;;;4976598;28;20171;-82
2023/04/24 14:41:15;;;;;;;77.37;6.30;;;13.90;1.00;;;;;;4976672;28;20243;-82
2023/04/24 14:43:41;;;;;;;66.80;6.30;;;13.80;1.00;;;;;;4975061;28;20199;-83
2023/04/24 14:46:07;;;;;;;69.80;6.57;;;13.90;1.00;;;;;;4976274;28;20207;-82
2023/04/24 14:48:32;;;;;;;70.10;7.10;;;14.10;1.00;;;;;;4976641;28;20470;-82
2023/04/24 14:50:58;;;;;;;70.03;7.07;;;14.30;1.00;;;;;;4975357;28;20190;-82
2023/04/24 14:53:24;;;;;;;72.27;6.47;;;14.50;1.00;;;;;;4976541;28;20250;-82
2023/04/24 14:55:50;;;;;;;76.93;8.73;;;14.30;1.00;;;;;;4976005;28;20897;-82
2023/04/24 14:58:16;;;;;;;69.17;6.90;;;14.20;1.00;;;;;;4976889;28;20254;-82
2023/04/24 15:00:41;;;;;;;73.70;8.60;;;14.40;1.00;;;;;;4976371;28;20303;-82